KDHN/DHN METAR and TAF weather

Enter ICAO airport designator
Station Type Date Time Source
KDHN METAR 2018/10/16 19:53 UTC NOAA

KDHN 161953Z AUTO 25008KT 10SM FEW045 32/20 A3009 RMK AO2 SLP183 T03170200


Station Type Date Time Source
KDHN Decoded METAR 2018/10/16 19:53 UTC NOAA

DOTHAN AIRPORT, AL, United States (KDHN) 31-19N 085-27W 113M
Oct 16, 2018 - 03:53 PM EDT / 2018.10.16 1953 UTC
Wind: from the WSW (250 degrees) at 9 MPH (8 KT):0
Visibility: 10 mile(s):0
Sky conditions: mostly clear
Temperature: 89.1 F (31.7 C)
Dew Point: 68.0 F (20.0 C)
Relative Humidity: 49%
Pressure (altimeter): 30.09 in. Hg (1018 hPa)
ob: KDHN 161953Z AUTO 25008KT 10SM FEW045 32/20 A3009 RMK AO2 SLP183 T03170200
cycle: 20

Station Type Date Time Source
KDHN TAF 2018/10/16 18:30 UTC NOAA

TAF KDHN 161729Z 1618/1718 23005KT P6SM SCT035
FM171100 VRB03KT 4SM BR SCT009
FM171400 36006KT P6SM BKN035


Example: see airport list